createdAt,value
2023-03-10T00:00:12.814Z,68.30
2023-03-10T00:02:44.888Z,68.21
2023-03-10T00:05:11.384Z,68.13
2023-03-10T00:07:37.924Z,67.94
2023-03-10T00:10:04.560Z,68.05
2023-03-10T00:12:30.886Z,67.90
2023-03-10T00:14:57.388Z,68.28
2023-03-10T00:17:23.830Z,68.07
2023-03-10T00:19:50.151Z,68.17
2023-03-10T00:22:16.608Z,67.86
2023-03-10T00:24:42.911Z,67.75
2023-03-10T00:27:09.241Z,67.86
2023-03-10T00:29:35.600Z,68.03
2023-03-10T00:32:01.969Z,68.05
2023-03-10T00:34:28.269Z,67.51
2023-03-10T00:36:54.624Z,67.71
2023-03-10T00:39:21.084Z,67.63
2023-03-10T00:41:48.699Z,68.01
2023-03-10T00:44:15.359Z,68.15
2023-03-10T00:46:41.807Z,67.80
2023-03-10T00:49:08.912Z,68.18
2023-03-10T00:51:35.947Z,68.03
2023-03-10T00:54:03.331Z,67.85
2023-03-10T00:56:30.506Z,67.92
2023-03-10T00:58:59.707Z,67.27
2023-03-10T01:01:27.738Z,67.90
2023-03-10T01:03:56.957Z,67.47
2023-03-10T01:06:24.608Z,67.32
2023-03-10T01:08:51.349Z,67.46
2023-03-10T01:11:20.956Z,67.47
2023-03-10T01:13:48.571Z,67.62
2023-03-10T01:16:15.941Z,67.53
2023-03-10T01:18:43.182Z,67.97
2023-03-10T01:21:15.989Z,67.70
2023-03-10T01:23:42.318Z,68.31
2023-03-10T01:26:08.843Z,68.72
2023-03-10T01:28:35.413Z,68.02
2023-03-10T01:31:01.763Z,68.24
2023-03-10T01:33:28.191Z,67.81
2023-03-10T01:35:54.595Z,67.85
2023-03-10T01:38:21.013Z,67.72
2023-03-10T01:40:49.818Z,67.77
2023-03-10T01:43:35.909Z,67.73
2023-03-10T01:46:02.241Z,67.85
2023-03-10T01:48:32.447Z,67.90
2023-03-10T01:50:59.035Z,67.89
2023-03-10T01:53:28.316Z,68.24
2023-03-10T01:55:59.753Z,67.85
2023-03-10T01:58:31.984Z,67.90
2023-03-10T02:00:58.401Z,67.93
2023-03-10T02:03:29.821Z,67.73
2023-03-10T02:05:59.663Z,67.24
2023-03-10T02:08:30.927Z,67.30
2023-03-10T02:10:59.082Z,67.35
2023-03-10T02:13:25.461Z,67.71
2023-03-10T02:15:52.089Z,67.77
2023-03-10T02:18:20.936Z,68.22
2023-03-10T02:20:59.320Z,68.66
2023-03-10T02:23:42.992Z,68.76
2023-03-10T02:26:22.225Z,68.42
2023-03-10T02:28:50.607Z,68.28
2023-03-10T02:31:17.469Z,68.18
2023-03-10T02:33:45.969Z,68.36
2023-03-10T02:36:13.780Z,68.56
2023-03-10T02:38:40.149Z,68.80
2023-03-10T02:41:28.733Z,69.01
2023-03-10T02:43:57.392Z,68.88
2023-03-10T02:46:24.115Z,68.73
2023-03-10T02:48:50.777Z,68.50
2023-03-10T02:51:26.027Z,68.33
2023-03-10T02:53:52.484Z,68.53
2023-03-10T02:56:18.849Z,68.80
2023-03-10T02:58:45.192Z,69.21
2023-03-10T03:01:11.638Z,69.57
2023-03-10T03:03:38.253Z,69.76
2023-03-10T03:06:05.428Z,70.05
2023-03-10T03:08:33.258Z,70.28
2023-03-10T03:11:00.303Z,70.05
2023-03-10T03:13:27.231Z,69.93
2023-03-10T03:15:53.649Z,70.14
2023-03-10T03:18:19.968Z,70.13
2023-03-10T03:20:46.440Z,70.18
2023-03-10T03:23:13.051Z,70.26
2023-03-10T03:25:41.344Z,70.16
2023-03-10T03:28:09.701Z,70.06
2023-03-10T03:30:36.544Z,70.30
2023-03-10T03:33:04.323Z,70.55
2023-03-10T03:35:33.135Z,70.19
2023-03-10T03:38:00.287Z,70.78
2023-03-10T03:40:28.819Z,70.31
2023-03-10T03:42:55.892Z,70.42
2023-03-10T03:45:25.787Z,70.41
2023-03-10T03:47:52.201Z,70.02
2023-03-10T03:50:20.171Z,70.15
2023-03-10T03:52:47.156Z,70.04
2023-03-10T03:55:15.901Z,69.93
2023-03-10T03:57:44.786Z,69.89
2023-03-10T04:00:16.113Z,69.96
2023-03-10T04:02:42.572Z,69.79
2023-03-10T04:05:09.110Z,69.66
2023-03-10T04:07:35.501Z,69.81
2023-03-10T04:10:01.994Z,69.34
2023-03-10T04:12:29.509Z,69.28
2023-03-10T04:14:55.808Z,69.09
2023-03-10T04:17:22.167Z,69.11
2023-03-10T04:20:00.716Z,69.09
2023-03-10T04:22:33.006Z,69.49
2023-03-10T04:24:59.346Z,69.28
2023-03-10T04:27:25.669Z,69.04
2023-03-10T04:29:52.018Z,68.77
2023-03-10T04:32:18.644Z,68.33
2023-03-10T04:34:44.994Z,68.55
2023-03-10T04:37:11.488Z,68.27
2023-03-10T04:39:38.100Z,68.43
2023-03-10T04:42:04.677Z,68.11
2023-03-10T04:44:31.742Z,68.37
2023-03-10T04:46:58.699Z,68.20
2023-03-10T04:49:25.108Z,68.20
2023-03-10T04:51:51.513Z,67.91
2023-03-10T04:54:17.882Z,67.96
2023-03-10T04:56:44.284Z,68.05
2023-03-10T04:59:10.872Z,68.61
2023-03-10T05:01:37.241Z,68.41
2023-03-10T05:04:05.549Z,68.71
2023-03-10T05:06:32.249Z,68.44
2023-03-10T05:08:58.608Z,68.35
2023-03-10T05:11:24.990Z,68.60
2023-03-10T05:13:51.340Z,68.36
2023-03-10T05:16:20.520Z,68.64
2023-03-10T05:18:47.018Z,68.37
2023-03-10T05:21:13.723Z,68.67
2023-03-10T05:23:40.782Z,68.73
2023-03-10T05:26:09.399Z,68.70
2023-03-10T05:28:35.836Z,68.32
2023-03-10T05:31:09.193Z,68.59
2023-03-10T05:33:35.541Z,68.68
2023-03-10T05:36:05.526Z,68.81
2023-03-10T05:38:31.891Z,68.47
2023-03-10T05:40:58.304Z,68.09
2023-03-10T05:43:24.732Z,68.53
2023-03-10T05:45:59.314Z,68.19
2023-03-10T05:48:26.441Z,68.53
2023-03-10T05:51:08.405Z,68.48
2023-03-10T05:53:35.469Z,68.03
2023-03-10T05:56:06.642Z,68.60
2023-03-10T05:58:33.048Z,68.81
2023-03-10T06:00:59.422Z,68.34
2023-03-10T06:03:25.992Z,68.60
2023-03-10T06:05:52.376Z,68.41
2023-03-10T06:08:18.765Z,68.78
2023-03-10T06:10:45.122Z,68.67
2023-03-10T06:13:11.464Z,68.48
2023-03-10T06:15:37.800Z,68.78
2023-03-10T06:18:04.261Z,68.58
2023-03-10T06:20:30.589Z,68.33
2023-03-10T06:22:56.934Z,68.53
2023-03-10T06:25:23.335Z,68.40
2023-03-10T06:27:49.691Z,68.28
2023-03-10T06:30:16.433Z,68.48
2023-03-10T06:32:43.167Z,68.25
2023-03-10T06:35:13.152Z,68.22
2023-03-10T06:37:39.709Z,68.57
2023-03-10T06:40:08.449Z,68.44
2023-03-10T06:42:34.873Z,68.75
2023-03-10T06:45:01.284Z,68.48
2023-03-10T06:47:27.685Z,68.53
2023-03-10T06:49:54.679Z,69.07
2023-03-10T06:52:21.083Z,68.69
2023-03-10T06:54:47.415Z,68.85
2023-03-10T06:57:13.725Z,69.06
2023-03-10T06:59:40.094Z,69.17
2023-03-10T07:02:07.218Z,68.90
2023-03-10T07:04:33.960Z,68.93
2023-03-10T07:07:00.289Z,68.88
2023-03-10T07:09:26.597Z,68.40
2023-03-10T07:11:52.931Z,68.21
2023-03-10T07:14:19.260Z,68.24
2023-03-10T07:16:46.569Z,68.57
2023-03-10T07:19:13.574Z,68.63
2023-03-10T07:21:39.984Z,68.86
2023-03-10T07:24:06.454Z,68.75
2023-03-10T07:26:32.890Z,68.29
2023-03-10T07:28:59.343Z,68.68
2023-03-10T07:31:26.085Z,68.68
2023-03-10T07:33:52.472Z,68.77
2023-03-10T07:36:20.193Z,68.71
2023-03-10T07:38:47.274Z,68.53
2023-03-10T07:41:17.288Z,68.69
2023-03-10T07:43:43.786Z,68.78
2023-03-10T07:46:13.385Z,69.01
2023-03-10T07:48:39.945Z,69.04
2023-03-10T07:51:06.912Z,68.55
2023-03-10T07:53:34.030Z,68.80
2023-03-10T07:56:04.750Z,68.39
2023-03-10T07:58:31.157Z,68.63
2023-03-10T08:00:59.006Z,68.73
2023-03-10T08:03:27.360Z,68.97
2023-03-10T08:05:53.860Z,68.68
2023-03-10T08:08:20.238Z,68.69
2023-03-10T08:10:46.780Z,69.03
2023-03-10T08:13:14.318Z,68.88
2023-03-10T08:15:40.946Z,68.54
2023-03-10T08:18:08.154Z,68.28
2023-03-10T08:20:35.874Z,68.36
2023-03-10T08:23:03.777Z,68.54
2023-03-10T08:25:30.573Z,68.46
2023-03-10T08:27:56.894Z,68.89
2023-03-10T08:30:23.523Z,68.65
2023-03-10T08:32:49.927Z,68.82
2023-03-10T08:35:16.838Z,68.82
2023-03-10T08:37:43.633Z,69.09
2023-03-10T08:40:13.377Z,69.00
2023-03-10T08:42:39.913Z,69.09
2023-03-10T08:45:08.852Z,69.00
2023-03-10T08:47:35.709Z,69.09
2023-03-10T08:50:02.273Z,68.82
2023-03-10T08:52:28.684Z,69.22
2023-03-10T08:54:55.088Z,69.34
2023-03-10T08:57:21.997Z,69.13
2023-03-10T08:59:48.418Z,69.21
2023-03-10T09:02:15.631Z,69.09
2023-03-10T09:04:42.649Z,69.48
2023-03-10T09:07:09.935Z,69.44
2023-03-10T09:09:36.275Z,69.33
2023-03-10T09:12:03.994Z,69.47
2023-03-10T09:14:30.473Z,69.38
2023-03-10T09:16:56.872Z,68.58
2023-03-10T09:19:24.245Z,68.67
2023-03-10T09:21:50.589Z,68.57
2023-03-10T09:24:17.991Z,68.16
2023-03-10T09:26:44.959Z,68.22
2023-03-10T09:29:12.002Z,67.62
2023-03-10T09:31:39.482Z,67.86
2023-03-10T09:34:08.118Z,67.92
2023-03-10T09:36:35.185Z,67.65
2023-03-10T09:39:02.312Z,67.59
2023-03-10T09:41:58.021Z,67.89
2023-03-10T09:44:42.691Z,67.26
2023-03-10T09:47:25.358Z,67.83
2023-03-10T09:50:13.856Z,67.49
2023-03-10T09:52:57.174Z,67.35
2023-03-10T09:55:47.974Z,67.51
2023-03-10T09:58:39.163Z,67.58
2023-03-10T10:01:13.305Z,67.70
2023-03-10T10:03:52.949Z,67.57
2023-03-10T10:06:34.052Z,67.82
2023-03-10T10:09:05.692Z,68.14
2023-03-10T10:11:33.934Z,68.20
2023-03-10T10:14:27.791Z,68.28
2023-03-10T10:17:20.190Z,68.59
2023-03-10T10:19:48.454Z,68.14
2023-03-10T10:22:22.058Z,69.04
2023-03-10T10:25:08.222Z,68.62
2023-03-10T10:27:39.818Z,69.31
2023-03-10T10:30:29.474Z,69.09
2023-03-10T10:33:06.416Z,68.86
2023-03-10T10:35:41.950Z,68.82
2023-03-10T10:38:11.541Z,68.42
2023-03-10T10:40:50.702Z,68.26
2023-03-10T10:43:19.942Z,68.54
2023-03-10T10:45:57.179Z,68.50
2023-03-10T10:48:43.814Z,68.61
2023-03-10T10:51:28.862Z,68.54
2023-03-10T10:54:01.052Z,68.47
2023-03-10T10:56:28.841Z,68.40
2023-03-10T10:59:20.009Z,67.95
2023-03-10T11:01:49.547Z,67.50
2023-03-10T11:04:17.582Z,67.14
2023-03-10T11:06:44.105Z,67.14
2023-03-10T11:09:18.271Z,66.99
2023-03-10T11:11:59.364Z,66.87
2023-03-10T11:14:36.056Z,66.40
2023-03-10T11:17:05.320Z,66.77
2023-03-10T11:19:45.860Z,66.35
2023-03-10T11:22:28.356Z,66.50
2023-03-10T11:25:23.937Z,67.00
2023-03-10T11:28:13.737Z,67.10
2023-03-10T11:30:49.097Z,66.93
2023-03-10T11:33:41.764Z,66.53
2023-03-10T11:36:23.306Z,67.02
2023-03-10T11:38:58.285Z,66.44
2023-03-10T11:41:28.559Z,66.79
2023-03-10T11:44:03.403Z,66.68
2023-03-10T11:46:36.528Z,66.35
2023-03-10T11:49:06.389Z,66.42
2023-03-10T11:51:52.952Z,66.22
2023-03-10T11:54:31.399Z,66.74
2023-03-10T11:56:59.547Z,66.53
2023-03-10T11:59:33.089Z,66.37
2023-03-10T12:02:10.047Z,66.83
2023-03-10T12:04:43.722Z,66.27
2023-03-10T12:07:20.982Z,66.36
2023-03-10T12:09:58.151Z,66.18
2023-03-10T12:12:32.208Z,65.81
2023-03-10T12:15:06.253Z,66.06
2023-03-10T12:17:32.704Z,66.08
2023-03-10T12:20:16.014Z,66.29
2023-03-10T12:22:46.722Z,66.52
2023-03-10T12:25:28.070Z,66.11
2023-03-10T12:28:20.038Z,66.42
2023-03-10T12:31:02.649Z,66.42
2023-03-10T12:33:33.883Z,66.71
2023-03-10T12:36:15.266Z,66.72
2023-03-10T12:38:41.913Z,66.89
2023-03-10T12:41:09.373Z,67.19
2023-03-10T12:44:23.168Z,67.33
2023-03-10T12:47:12.310Z,67.24
2023-03-10T12:49:49.845Z,67.81
2023-03-10T12:52:29.338Z,67.35
2023-03-10T12:55:15.809Z,67.61
2023-03-10T12:58:01.570Z,67.39
2023-03-10T13:00:33.909Z,67.24
2023-03-10T13:03:09.634Z,67.28
2023-03-10T13:05:42.566Z,67.40
2023-03-10T13:08:17.874Z,68.03
2023-03-10T13:10:44.831Z,68.19
2023-03-10T13:13:16.958Z,68.25
2023-03-10T13:15:43.387Z,68.50
2023-03-10T13:18:11.637Z,68.86
2023-03-10T13:20:38.316Z,68.31
2023-03-10T13:23:04.765Z,67.85
2023-03-10T13:25:33.666Z,67.89
2023-03-10T13:28:09.501Z,67.98
2023-03-10T13:30:35.729Z,67.73
2023-03-10T13:33:02.473Z,67.07
2023-03-10T13:35:36.740Z,67.38
2023-03-10T13:38:07.326Z,67.38
2023-03-10T13:40:34.296Z,67.29
2023-03-10T13:43:00.806Z,66.96
2023-03-10T13:45:33.792Z,67.08
2023-03-10T13:48:05.116Z,66.89
2023-03-10T13:50:31.963Z,66.83
2023-03-10T13:52:59.596Z,66.72
2023-03-10T13:55:28.215Z,66.36
2023-03-10T13:57:55.988Z,66.27
2023-03-10T14:00:25.713Z,66.13
2023-03-10T14:02:53.453Z,65.67
2023-03-10T14:05:46.067Z,65.85
2023-03-10T14:08:32.747Z,66.28
2023-03-10T14:11:20.846Z,66.14
2023-03-10T14:13:47.711Z,66.48
2023-03-10T14:16:14.424Z,66.65
2023-03-10T14:18:42.827Z,66.40
2023-03-10T14:22:00.044Z,66.07
2023-03-10T14:24:28.123Z,66.60
2023-03-10T14:26:59.482Z,66.81
2023-03-10T14:29:27.033Z,67.02
2023-03-10T14:31:53.360Z,67.62
2023-03-10T14:34:28.832Z,68.15
2023-03-10T14:36:55.148Z,67.84
2023-03-10T14:39:21.482Z,67.80
2023-03-10T14:41:47.965Z,67.73
2023-03-10T14:44:14.374Z,67.64
2023-03-10T14:46:40.955Z,67.80
2023-03-10T14:49:14.666Z,67.40
2023-03-10T14:51:40.975Z,67.19
2023-03-10T14:54:24.939Z,67.29
2023-03-10T14:56:58.912Z,67.23
2023-03-10T14:59:28.082Z,67.19
2023-03-10T15:02:06.364Z,67.62
2023-03-10T15:04:32.930Z,67.43
2023-03-10T15:06:59.335Z,67.68
2023-03-10T15:09:25.685Z,67.98
2023-03-10T15:11:54.586Z,67.67
2023-03-10T15:14:33.238Z,67.40
2023-03-10T15:16:59.654Z,67.50
2023-03-10T15:19:27.813Z,67.96
2023-03-10T15:21:54.401Z,67.98
2023-03-10T15:24:20.839Z,67.77
2023-03-10T15:26:48.216Z,68.14
2023-03-10T15:29:16.421Z,67.83
2023-03-10T15:31:42.845Z,68.67
2023-03-10T15:34:09.408Z,68.88
2023-03-10T15:36:36.187Z,68.68
2023-03-10T15:39:04.139Z,68.78
2023-03-10T15:41:35.041Z,68.37
2023-03-10T15:44:01.577Z,68.36
2023-03-10T15:46:27.969Z,68.55
2023-03-10T15:48:54.448Z,69.06
2023-03-10T15:51:21.006Z,68.58
2023-03-10T15:53:47.391Z,69.09
2023-03-10T15:56:15.262Z,69.39
2023-03-10T15:58:41.919Z,69.39
2023-03-10T16:01:16.367Z,69.62
2023-03-10T16:03:43.110Z,69.30
2023-03-10T16:06:10.307Z,70.02
2023-03-10T16:08:40.054Z,69.93
2023-03-10T16:11:15.941Z,70.23
2023-03-10T16:13:45.061Z,70.52
2023-03-10T16:16:12.822Z,70.94
2023-03-10T16:18:39.190Z,71.47
2023-03-10T16:21:05.742Z,71.50
2023-03-10T16:23:33.292Z,71.76
2023-03-10T16:26:18.384Z,71.99
2023-03-10T16:28:47.706Z,71.93
2023-03-10T16:31:15.325Z,72.45
2023-03-10T16:33:42.170Z,72.42
2023-03-10T16:36:13.439Z,72.72
2023-03-10T16:38:40.060Z,72.71
2023-03-10T16:41:08.234Z,73.04
2023-03-10T16:43:34.627Z,73.53
2023-03-10T16:46:06.387Z,73.22
2023-03-10T16:48:33.771Z,73.36
2023-03-10T16:51:00.237Z,72.84
2023-03-10T16:53:26.693Z,72.63
2023-03-10T16:56:04.025Z,72.91
2023-03-10T16:58:30.758Z,72.28
2023-03-10T17:00:57.137Z,72.36
2023-03-10T17:03:23.635Z,72.43
2023-03-10T17:05:53.542Z,72.45
2023-03-10T17:08:21.471Z,72.33
2023-03-10T17:10:48.626Z,72.79
2023-03-10T17:13:15.129Z,72.86
2023-03-10T17:15:41.504Z,73.52
2023-03-10T17:18:07.823Z,74.00
2023-03-10T17:20:34.188Z,74.32
2023-03-10T17:23:00.574Z,74.28
2023-03-10T17:25:26.925Z,74.81
2023-03-10T17:27:53.436Z,75.10
2023-03-10T17:30:20.010Z,75.43
2023-03-10T17:32:48.429Z,75.77
2023-03-10T17:35:14.889Z,75.63
2023-03-10T17:37:41.493Z,76.01
2023-03-10T17:40:11.189Z,76.45
2023-03-10T17:42:37.509Z,76.76
2023-03-10T17:45:06.815Z,76.61
2023-03-10T17:47:33.370Z,76.77
2023-03-10T17:50:01.976Z,76.95
2023-03-10T17:52:29.304Z,76.90
2023-03-10T17:54:55.939Z,77.39
2023-03-10T17:57:22.290Z,77.61
2023-03-10T17:59:50.892Z,77.87
2023-03-10T18:02:17.343Z,77.51
2023-03-10T18:04:46.636Z,76.86
2023-03-10T18:07:13.396Z,76.78
2023-03-10T18:09:39.953Z,76.71
2023-03-10T18:12:06.669Z,76.48
2023-03-10T18:14:34.498Z,76.35
2023-03-10T18:17:02.872Z,76.02
2023-03-10T18:19:29.264Z,76.11
2023-03-10T18:21:55.596Z,75.92
2023-03-10T18:24:22.349Z,76.16
2023-03-10T18:26:48.914Z,76.15
2023-03-10T18:29:16.413Z,76.24
2023-03-10T18:31:42.758Z,76.15
2023-03-10T18:34:10.326Z,75.64
2023-03-10T18:36:36.809Z,76.02
2023-03-10T18:39:04.827Z,75.92
2023-03-10T18:41:32.507Z,75.85
2023-03-10T18:43:59.939Z,75.96
2023-03-10T18:46:27.052Z,75.90
2023-03-10T18:48:55.758Z,75.82
2023-03-10T18:51:27.661Z,75.77
2023-03-10T18:53:54.056Z,75.67
2023-03-10T18:56:20.644Z,75.60
2023-03-10T18:58:47.002Z,75.66
2023-03-10T19:01:14.640Z,75.55
2023-03-10T19:03:41.743Z,75.75
2023-03-10T19:06:08.368Z,75.63
2023-03-10T19:08:36.651Z,75.28
2023-03-10T19:11:03.748Z,75.34
2023-03-10T19:13:30.096Z,75.26
2023-03-10T19:15:56.873Z,75.21
2023-03-10T19:18:24.611Z,75.75
2023-03-10T19:20:51.430Z,75.37
2023-03-10T19:23:17.982Z,75.23
2023-03-10T19:25:44.486Z,75.28
2023-03-10T19:28:10.856Z,75.22
2023-03-10T19:30:42.716Z,75.13
2023-03-10T19:33:11.005Z,75.18
2023-03-10T19:35:38.066Z,75.22
2023-03-10T19:38:05.477Z,75.18
2023-03-10T19:40:32.606Z,75.34
2023-03-10T19:42:59.557Z,75.24
2023-03-10T19:45:26.196Z,74.92
2023-03-10T19:47:55.200Z,75.06
2023-03-10T19:50:21.917Z,74.95
2023-03-10T19:52:49.853Z,75.08
2023-03-10T19:55:23.344Z,74.87
2023-03-10T19:57:52.181Z,74.97
2023-03-10T20:00:24.972Z,74.77
2023-03-10T20:02:53.172Z,74.78
2023-03-10T20:05:20.600Z,74.82
2023-03-10T20:07:47.383Z,74.89
2023-03-10T20:10:15.798Z,74.93
2023-03-10T20:12:42.292Z,74.82
2023-03-10T20:15:10.301Z,74.83
2023-03-10T20:17:36.815Z,74.72
2023-03-10T20:20:09.942Z,74.79
2023-03-10T20:22:39.063Z,74.67
2023-03-10T20:25:07.534Z,74.71
2023-03-10T20:27:34.295Z,74.46
2023-03-10T20:30:00.706Z,74.55
2023-03-10T20:32:27.155Z,74.70
2023-03-10T20:34:54.623Z,74.64
2023-03-10T20:37:21.012Z,74.78
2023-03-10T20:39:47.472Z,74.64
2023-03-10T20:42:13.911Z,74.54
2023-03-10T20:44:40.532Z,74.54
2023-03-10T20:47:07.567Z,74.45
2023-03-10T20:49:33.906Z,74.60
2023-03-10T20:52:00.236Z,74.41
2023-03-10T20:54:26.797Z,74.60
2023-03-10T20:56:53.241Z,74.54
2023-03-10T20:59:19.690Z,74.19
2023-03-10T21:01:46.199Z,74.38
2023-03-10T21:04:12.546Z,74.52
2023-03-10T21:06:38.874Z,74.48
2023-03-10T21:09:05.857Z,74.42
2023-03-10T21:11:35.641Z,74.40
2023-03-10T21:14:02.086Z,74.38
2023-03-10T21:16:28.491Z,74.32
2023-03-10T21:18:54.830Z,74.30
2023-03-10T21:21:21.188Z,74.28
2023-03-10T21:23:47.832Z,74.28
2023-03-10T21:26:16.973Z,74.13
2023-03-10T21:28:44.023Z,74.32
2023-03-10T21:31:10.710Z,74.02
2023-03-10T21:33:37.146Z,74.02
2023-03-10T21:36:03.917Z,73.89
2023-03-10T21:38:30.302Z,74.03
2023-03-10T21:40:56.643Z,73.96
2023-03-10T21:43:23.113Z,74.08
2023-03-10T21:45:49.536Z,73.80
2023-03-10T21:48:15.986Z,73.88
2023-03-10T21:50:42.451Z,73.94
2023-03-10T21:53:09.210Z,73.82
2023-03-10T21:55:37.545Z,73.93
2023-03-10T21:58:05.651Z,73.72
2023-03-10T22:00:32.335Z,73.72
2023-03-10T22:02:59.055Z,74.03
2023-03-10T22:05:25.622Z,73.84
2023-03-10T22:07:52.157Z,73.84
2023-03-10T22:10:18.925Z,73.72
2023-03-10T22:12:45.675Z,73.86
2023-03-10T22:15:19.280Z,73.46
2023-03-10T22:17:45.912Z,73.90
2023-03-10T22:20:16.954Z,73.76
2023-03-10T22:22:43.362Z,73.75
2023-03-10T22:25:10.581Z,73.51
2023-03-10T22:27:36.942Z,73.69
2023-03-10T22:30:04.201Z,73.67
2023-03-10T22:32:30.574Z,73.85
2023-03-10T22:34:57.071Z,73.33
2023-03-10T22:37:23.497Z,73.54
2023-03-10T22:39:49.927Z,73.20
2023-03-10T22:42:16.599Z,73.12
2023-03-10T22:44:43.026Z,73.17
2023-03-10T22:47:09.435Z,73.06
2023-03-10T22:49:35.878Z,73.11
2023-03-10T22:52:06.846Z,72.94
2023-03-10T22:54:33.651Z,72.76
2023-03-10T22:57:00.122Z,72.98
2023-03-10T22:59:26.526Z,73.02
2023-03-10T23:01:53.263Z,73.12
2023-03-10T23:04:19.634Z,73.39
2023-03-10T23:06:46.032Z,73.52
2023-03-10T23:09:12.567Z,73.37
2023-03-10T23:11:39.011Z,73.26
2023-03-10T23:14:05.469Z,73.56
2023-03-10T23:16:36.763Z,73.47
2023-03-10T23:19:07.196Z,73.89
2023-03-10T23:21:35.285Z,73.53
2023-03-10T23:24:01.930Z,73.47
2023-03-10T23:26:30.050Z,73.16
2023-03-10T23:28:56.436Z,73.04
2023-03-10T23:31:22.913Z,72.90
2023-03-10T23:33:49.506Z,72.81
2023-03-10T23:36:15.997Z,72.80
2023-03-10T23:38:42.476Z,72.95
2023-03-10T23:41:09.020Z,73.08
2023-03-10T23:43:35.956Z,73.30
2023-03-10T23:46:07.597Z,73.35
2023-03-10T23:48:34.980Z,73.41
2023-03-10T23:51:02.756Z,73.34
2023-03-10T23:53:29.798Z,73.72
2023-03-10T23:56:00.231Z,73.37
2023-03-10T23:58:27.964Z,73.22
